createdAt,value
2023-04-26T00:03:27.280Z,99.90
2023-04-26T00:08:29.771Z,99.90
2023-04-26T00:13:31.897Z,99.90
2023-04-26T00:18:37.463Z,99.90
2023-04-26T00:23:41.009Z,99.90
2023-04-26T00:28:43.364Z,99.90
2023-04-26T00:39:04.229Z,99.90
2023-04-26T00:44:10.686Z,99.90
2023-04-26T00:49:25.602Z,99.90
2023-04-26T00:54:28.432Z,99.90
2023-04-26T00:59:31.949Z,99.90
2023-04-26T01:04:35.912Z,99.90
2023-04-26T01:09:38.049Z,99.90
2023-04-26T01:14:40.546Z,99.90
2023-04-26T01:19:53.426Z,99.90
2023-04-26T01:24:58.365Z,99.90
2023-04-26T01:30:00.644Z,99.90
2023-04-26T01:35:57.592Z,99.90
2023-04-26T01:40:35.855Z,99.90
2023-04-26T01:45:40.407Z,99.90
2023-04-26T01:50:43.801Z,99.90
2023-04-26T01:55:48.517Z,99.90
2023-04-26T02:00:53.840Z,99.90
2023-04-26T02:05:58.447Z,99.90
2023-04-26T02:11:00.795Z,99.90
2023-04-26T02:16:07.402Z,99.90
2023-04-26T02:21:13.783Z,99.90
2023-04-26T02:26:16.766Z,99.90
2023-04-26T02:31:20.093Z,99.90
2023-04-26T02:36:23.908Z,99.90
2023-04-26T02:41:27.932Z,99.90
2023-04-26T02:46:44.059Z,99.90
2023-04-26T02:51:58.220Z,99.90
2023-04-26T02:57:05.813Z,99.90
2023-04-26T03:02:15.270Z,99.90
2023-04-26T03:07:17.633Z,99.90
2023-04-26T03:12:33.869Z,99.90
2023-04-26T03:17:36.178Z,99.90
2023-04-26T03:22:38.327Z,99.90
2023-04-26T03:27:43.774Z,99.90
2023-04-26T03:32:48.808Z,99.90
2023-04-26T03:37:58.935Z,99.90
2023-04-26T03:43:10.337Z,99.90
2023-04-26T03:48:25.625Z,99.90
2023-04-26T03:53:30.774Z,99.90
2023-04-26T03:58:36.466Z,99.90
2023-04-26T04:03:45.294Z,99.90
2023-04-26T04:08:50.678Z,99.90
2023-04-26T04:14:00.261Z,99.90
2023-04-26T04:19:08.946Z,99.90
2023-04-26T04:24:14.088Z,99.90
2023-04-26T04:29:19.564Z,99.90
2023-04-26T04:34:24.192Z,99.90
2023-04-26T04:39:27.909Z,99.90
2023-04-26T04:44:30.651Z,99.90
2023-04-26T04:49:39.255Z,99.90
2023-04-26T04:54:43.654Z,99.90
2023-04-26T04:59:51.793Z,99.90
2023-04-26T05:04:58.343Z,99.90
2023-04-26T05:10:01.391Z,99.90
2023-04-26T05:15:10.289Z,99.90
2023-04-26T05:20:12.480Z,99.90
2023-04-26T05:25:14.809Z,99.90
2023-04-26T05:30:16.803Z,99.90
2023-04-26T05:35:18.962Z,99.90
2023-04-26T05:40:20.772Z,99.90
2023-04-26T05:45:23.165Z,99.90
2023-04-26T05:50:25.032Z,99.90
2023-04-26T05:55:27.041Z,99.90
2023-04-26T06:00:29.002Z,99.90
2023-04-26T06:05:34.227Z,99.90
2023-04-26T06:10:37.771Z,99.90
2023-04-26T06:15:39.846Z,99.90
2023-04-26T06:20:41.873Z,99.90
2023-04-26T06:25:45.888Z,99.90
2023-04-26T06:30:47.747Z,99.90
2023-04-26T06:35:49.814Z,99.90
2023-04-26T06:40:51.648Z,99.90
2023-04-26T06:45:53.523Z,99.90
2023-04-26T06:50:56.124Z,99.90
2023-04-26T06:55:58.197Z,99.90
2023-04-26T07:01:00.391Z,99.90
2023-04-26T07:06:02.270Z,99.90
2023-04-26T07:11:10.409Z,99.90
2023-04-26T07:16:12.322Z,99.90
2023-04-26T07:21:17.158Z,99.90
2023-04-26T07:26:19.019Z,99.90
2023-04-26T07:31:20.968Z,99.90
2023-04-26T07:36:24.535Z,99.90
2023-04-26T07:41:27.085Z,99.90
2023-04-26T07:46:28.923Z,99.90
2023-04-26T07:51:31.739Z,99.90
2023-04-26T07:56:33.616Z,99.90
2023-04-26T08:01:35.490Z,99.90
2023-04-26T08:06:38.838Z,99.90
2023-04-26T08:11:41.981Z,99.90
2023-04-26T08:16:44.458Z,99.90
2023-04-26T08:21:46.324Z,99.90
2023-04-26T08:26:48.354Z,99.90
2023-04-26T08:31:50.259Z,99.90
2023-04-26T08:36:52.139Z,99.90
2023-04-26T08:41:57.772Z,99.90
2023-04-26T08:47:18.826Z,99.90
2023-04-26T08:52:23.494Z,99.90
2023-04-26T08:57:26.710Z,99.90
2023-04-26T09:02:28.745Z,99.90
2023-04-26T09:07:32.597Z,99.90
2023-04-26T09:12:36.512Z,99.90
2023-04-26T09:17:41.672Z,99.90
2023-04-26T09:22:43.728Z,99.90
2023-04-26T09:27:46.484Z,99.90
2023-04-26T09:33:03.971Z,99.90
2023-04-26T09:38:11.817Z,99.90
2023-04-26T09:43:16.671Z,99.90
2023-04-26T09:48:26.886Z,99.90
2023-04-26T09:53:52.907Z,99.90
2023-04-26T09:59:02.268Z,99.90
2023-04-26T10:04:04.836Z,99.90
2023-04-26T10:09:09.218Z,99.90
2023-04-26T10:14:11.925Z,99.90
2023-04-26T10:19:14.096Z,99.90
2023-04-26T10:24:16.076Z,99.90
2023-04-26T10:29:18.449Z,99.90
2023-04-26T10:34:21.474Z,99.90
2023-04-26T10:39:24.958Z,99.90
2023-04-26T10:44:41.623Z,99.90
2023-04-26T10:49:46.833Z,99.90
2023-04-26T10:54:53.493Z,99.90
2023-04-26T11:00:10.807Z,99.90
2023-04-26T11:05:45.806Z,99.90
2023-04-26T11:10:53.194Z,97.40
2023-04-26T11:16:00.516Z,95.00
2023-04-26T11:21:05.433Z,96.90
2023-04-26T11:26:08.807Z,94.60
2023-04-26T11:31:14.648Z,95.50
2023-04-26T11:36:17.214Z,90.20
2023-04-26T11:41:19.161Z,95.70
2023-04-26T11:46:22.136Z,90.00
2023-04-26T11:51:24.454Z,90.40
2023-04-26T11:56:26.865Z,87.50
2023-04-26T12:01:29.932Z,90.50
2023-04-26T12:06:45.597Z,89.20
2023-04-26T12:12:07.793Z,90.60
2023-04-26T12:17:10.591Z,89.70
2023-04-26T12:22:12.683Z,89.10
2023-04-26T12:27:21.164Z,91.80
2023-04-26T12:32:23.578Z,91.00
2023-04-26T12:37:25.508Z,90.30
2023-04-26T12:42:27.327Z,87.10
2023-04-26T12:47:29.213Z,88.20
2023-04-26T12:52:33.180Z,88.90
2023-04-26T12:57:36.934Z,87.30
2023-04-26T13:02:39.118Z,84.00
2023-04-26T13:07:42.860Z,85.90
2023-04-26T13:12:44.832Z,83.80
2023-04-26T13:17:47.082Z,86.30
2023-04-26T13:22:49.198Z,86.90
2023-04-26T13:27:53.714Z,86.20
2023-04-26T13:32:57.500Z,75.10
2023-04-26T13:38:00.772Z,76.10
2023-04-26T13:43:02.880Z,77.90
2023-04-26T13:48:04.950Z,79.80
2023-04-26T13:53:07.019Z,76.60
2023-04-26T13:58:09.239Z,76.10
2023-04-26T14:03:11.370Z,89.90
2023-04-26T14:08:13.795Z,80.30
2023-04-26T14:13:16.113Z,81.30
2023-04-26T14:18:18.227Z,80.50
2023-04-26T14:23:20.232Z,79.80
2023-04-26T14:28:22.100Z,77.90
2023-04-26T14:33:25.145Z,84.60
2023-04-26T14:38:27.190Z,83.70
2023-04-26T14:43:29.064Z,77.90
2023-04-26T14:48:30.894Z,79.00
2023-04-26T14:53:33.042Z,73.70
2023-04-26T14:58:35.077Z,77.10
2023-04-26T15:03:37.392Z,77.70
2023-04-26T15:08:39.531Z,73.90
2023-04-26T15:13:41.417Z,73.00
2023-04-26T15:18:43.242Z,73.20
2023-04-26T15:23:45.254Z,73.00
2023-04-26T15:28:47.421Z,72.40
2023-04-26T15:33:49.297Z,69.60
2023-04-26T15:38:51.239Z,68.90
2023-04-26T15:43:53.678Z,70.10
2023-04-26T15:48:55.705Z,61.70
2023-04-26T15:53:57.636Z,63.20
2023-04-26T15:58:59.490Z,61.70
2023-04-26T16:04:01.447Z,63.70
2023-04-26T16:09:17.198Z,67.70
2023-04-26T16:14:26.416Z,68.20
2023-04-26T16:19:28.391Z,71.60
2023-04-26T16:24:30.235Z,73.80
2023-04-26T16:29:32.413Z,67.90
2023-04-26T16:34:34.360Z,67.00
2023-04-26T16:39:36.579Z,74.10
2023-04-26T16:44:38.582Z,72.60
2023-04-26T16:49:40.469Z,71.10
2023-04-26T16:54:42.345Z,71.50
2023-04-26T16:59:44.614Z,78.70
2023-04-26T17:04:49.070Z,74.80
2023-04-26T17:09:55.105Z,72.90
2023-04-26T17:14:58.931Z,75.10
2023-04-26T17:20:00.763Z,73.80
2023-04-26T17:25:02.767Z,76.20
2023-04-26T17:30:05.634Z,72.20
2023-04-26T17:35:08.083Z,78.50
2023-04-26T17:40:10.839Z,72.00
2023-04-26T17:45:14.218Z,77.70
2023-04-26T17:50:17.918Z,79.00
2023-04-26T17:55:19.909Z,77.20
2023-04-26T18:00:22.071Z,80.10
2023-04-26T18:05:24.945Z,87.70
2023-04-26T18:10:26.829Z,85.30
2023-04-26T18:15:29.041Z,83.70
2023-04-26T18:20:31.439Z,86.70
2023-04-26T18:25:33.650Z,82.20
2023-04-26T18:30:35.705Z,81.50
2023-04-26T18:35:37.623Z,82.60
2023-04-26T18:40:43.581Z,80.80
2023-04-26T18:45:45.689Z,86.50
2023-04-26T18:50:51.350Z,85.20
2023-04-26T18:55:53.470Z,88.40
2023-04-26T19:00:55.340Z,91.40
2023-04-26T19:05:57.324Z,90.70
2023-04-26T19:10:59.376Z,92.10
2023-04-26T19:16:16.512Z,91.60
2023-04-26T19:21:22.764Z,91.20
2023-04-26T19:26:56.214Z,91.90
2023-04-26T19:32:57.444Z,92.30
2023-04-26T19:38:15.568Z,91.30
2023-04-26T19:43:51.712Z,92.30
2023-04-26T19:49:02.115Z,93.60
2023-04-26T19:54:09.707Z,93.20
2023-04-26T19:59:39.491Z,93.00
2023-04-26T20:04:47.033Z,93.80
2023-04-26T20:10:12.566Z,95.00
2023-04-26T20:15:30.966Z,94.60
2023-04-26T20:20:39.913Z,95.20
2023-04-26T20:25:58.129Z,95.00
2023-04-26T20:31:04.611Z,96.50
2023-04-26T20:36:15.028Z,96.20
2023-04-26T20:41:23.980Z,96.50
2023-04-26T20:46:27.424Z,97.30
2023-04-26T20:51:38.855Z,98.20
2023-04-26T20:56:58.169Z,98.90
2023-04-26T21:02:05.499Z,99.30
2023-04-26T21:07:12.678Z,99.80
2023-04-26T21:12:16.214Z,99.90
2023-04-26T21:17:20.640Z,99.90
2023-04-26T21:22:25.167Z,99.90
2023-04-26T21:27:29.883Z,99.90
2023-04-26T21:32:32.056Z,99.90
2023-04-26T21:37:47.990Z,99.90
2023-04-26T21:43:03.931Z,99.90
2023-04-26T21:48:20.661Z,99.90
2023-04-26T21:53:23.012Z,99.90
2023-04-26T21:58:34.518Z,99.90
2023-04-26T22:03:37.702Z,99.90
2023-04-26T22:08:53.468Z,99.90
2023-04-26T22:13:56.896Z,99.90
2023-04-26T22:19:01.616Z,99.90
2023-04-26T22:24:05.032Z,99.90
2023-04-26T22:29:15.052Z,99.90
2023-04-26T22:34:32.233Z,99.90
2023-04-26T22:39:39.308Z,99.90
2023-04-26T22:44:44.545Z,99.90
2023-04-26T22:49:50.460Z,99.90
2023-04-26T22:54:55.885Z,99.90
2023-04-26T23:00:00.604Z,99.90
2023-04-26T23:05:05.704Z,99.90
2023-04-26T23:10:13.377Z,99.90
2023-04-26T23:15:15.960Z,99.90
2023-04-26T23:20:21.943Z,99.90
2023-04-26T23:25:24.321Z,99.90
2023-04-26T23:30:39.716Z,99.90
2023-04-26T23:35:43.662Z,99.90
2023-04-26T23:40:46.637Z,99.90
2023-04-26T23:46:06.287Z,99.90
2023-04-26T23:51:17.848Z,99.90
2023-04-26T23:56:23.157Z,99.90
